ADDS TAF Data INFO
IDs: Format: Raw Decoded Include METARs

Data at: 0916 UTC 20 Jan 2018

KDMA 200858Z AUTO 11004KT 10SM CLR 11/M08 A2992 RMK AO2 SLP104 T01071080 57007 $

TAF KDMA 200618Z 2006/2112 14009KT 9999 FEW250 QNH2993INS
  BECMG 2008/2009 14009KT 9999 SCT070 QNH2990INS
  BECMG 2017/2018 23012G18KT 9999 BKN030 BKN070 610709 QNH2991INS
  BECMG 2019/2020 30015G25KT 9999 VCSH BKN020 610709 QNH2993INS
  TEMPO 2021/2024 9000 -SHRA
  BECMG 2100/2101 28012KT 9999 NSW BKN015 QNH2993INS
  BECMG 2102/2103 25009KT 9999 BKN035 BKN050 QNH2999INS TX15/2018Z TN02/2016Z